sensor_id;sensor_type;location;lat;lon;timestamp;pressure;altitude;pressure_sealevel;temperature;humidity
56038;BME280;41907;47.848;9.000;2023-01-30T00:00:18;96480.97;;;-2.60;100.00
56038;BME280;41907;47.848;9.000;2023-01-30T00:02:43;96473.34;;;-2.62;100.00
56038;BME280;41907;47.848;9.000;2023-01-30T00:05:08;96469.94;;;-2.62;100.00
56038;BME280;41907;47.848;9.000;2023-01-30T00:07:34;96460.34;;;-2.68;100.00
56038;BME280;41907;47.848;9.000;2023-01-30T00:09:59;96467.97;;;-2.67;100.00
56038;BME280;41907;47.848;9.000;2023-01-30T00:12:24;96471.97;;;-2.71;100.00
56038;BME280;41907;47.848;9.000;2023-01-30T00:14:50;96464.16;;;-2.71;100.00
56038;BME280;41907;47.848;9.000;2023-01-30T00:17:15;96460.13;;;-2.73;100.00
56038;BME280;41907;47.848;9.000;2023-01-30T00:19:40;96448.72;;;-2.79;100.00
56038;BME280;41907;47.848;9.000;2023-01-30T00:22:06;96450.94;;;-2.82;100.00
56038;BME280;41907;47.848;9.000;2023-01-30T00:24:31;96462.78;;;-2.80;100.00
56038;BME280;41907;47.848;9.000;2023-01-30T00:26:57;96462.16;;;-2.82;100.00
56038;BME280;41907;47.848;9.000;2023-01-30T00:29:22;96457.94;;;-2.76;100.00
56038;BME280;41907;47.848;9.000;2023-01-30T00:31:47;96456.75;;;-2.80;100.00
56038;BME280;41907;47.848;9.000;2023-01-30T00:34:13;96453.75;;;-2.90;100.00
56038;BME280;41907;47.848;9.000;2023-01-30T00:36:38;96443.13;;;-2.89;100.00
56038;BME280;41907;47.848;9.000;2023-01-30T00:39:03;96438.94;;;-2.96;100.00
56038;BME280;41907;47.848;9.000;2023-01-30T00:41:29;96420.69;;;-3.03;100.00
56038;BME280;41907;47.848;9.000;2023-01-30T00:44:14;96412.66;;;-3.08;100.00
56038;BME280;41907;47.848;9.000;2023-01-30T00:46:58;96407.84;;;-3.11;100.00
56038;BME280;41907;47.848;9.000;2023-01-30T00:49:29;96409.69;;;-3.12;100.00
56038;BME280;41907;47.848;9.000;2023-01-30T00:51:54;96405.63;;;-3.08;100.00
56038;BME280;41907;47.848;9.000;2023-01-30T00:54:20;96406.44;;;-3.07;100.00
56038;BME280;41907;47.848;9.000;2023-01-30T00:56:45;96414.06;;;-3.06;100.00
56038;BME280;41907;47.848;9.000;2023-01-30T00:59:10;96417.09;;;-3.02;100.00
56038;BME280;41907;47.848;9.000;2023-01-30T01:01:36;96423.91;;;-3.08;100.00
56038;BME280;41907;47.848;9.000;2023-01-30T01:04:01;96412.66;;;-3.08;100.00
56038;BME280;41907;47.848;9.000;2023-01-30T01:06:27;96410.69;;;-3.13;100.00
56038;BME280;41907;47.848;9.000;2023-01-30T01:08:53;96403.06;;;-3.14;100.00
56038;BME280;41907;47.848;9.000;2023-01-30T01:11:18;96396.03;;;-3.14;100.00
56038;BME280;41907;47.848;9.000;2023-01-30T01:13:53;96405.63;;;-3.08;100.00
56038;BME280;41907;47.848;9.000;2023-01-30T01:16:20;96399.41;;;-3.07;100.00
56038;BME280;41907;47.848;9.000;2023-01-30T01:18:45;96400.03;;;-3.11;100.00
56038;BME280;41907;47.848;9.000;2023-01-30T01:21:10;96392.44;;;-3.13;100.00
56038;BME280;41907;47.848;9.000;2023-01-30T01:23:37;96387.78;;;-3.11;100.00
56038;BME280;41907;47.848;9.000;2023-01-30T01:26:02;96381.78;;;-3.18;100.00
56038;BME280;41907;47.848;9.000;2023-01-30T01:28:28;96383.38;;;-3.10;100.00
56038;BME280;41907;47.848;9.000;2023-01-30T01:30:53;96378.78;;;-3.15;100.00
56038;BME280;41907;47.848;9.000;2023-01-30T01:33:18;96381.56;;;-3.10;100.00
56038;BME280;41907;47.848;9.000;2023-01-30T01:35:44;96376.34;;;-3.10;100.00
56038;BME280;41907;47.848;9.000;2023-01-30T01:38:11;96375.78;;;-3.12;100.00
56038;BME280;41907;47.848;9.000;2023-01-30T01:40:36;96373.94;;;-3.11;100.00
56038;BME280;41907;47.848;9.000;2023-01-30T01:43:22;96375.97;;;-3.13;100.00
56038;BME280;41907;47.848;9.000;2023-01-30T01:45:51;96379.97;;;-3.17;100.00
56038;BME280;41907;47.848;9.000;2023-01-30T01:48:27;96377.19;;;-3.22;100.00
56038;BME280;41907;47.848;9.000;2023-01-30T01:50:57;96378.00;;;-3.22;100.00
56038;BME280;41907;47.848;9.000;2023-01-30T01:53:29;96379.19;;;-3.18;100.00
56038;BME280;41907;47.848;9.000;2023-01-30T01:55:59;96375.59;;;-3.23;100.00
56038;BME280;41907;47.848;9.000;2023-01-30T01:58:30;96370.97;;;-3.28;100.00
56038;BME280;41907;47.848;9.000;2023-01-30T02:00:57;96381.41;;;-3.21;100.00
56038;BME280;41907;47.848;9.000;2023-01-30T02:03:25;96364.19;;;-3.35;100.00
56038;BME280;41907;47.848;9.000;2023-01-30T02:05:54;96361.19;;;-3.46;100.00
56038;BME280;41907;47.848;9.000;2023-01-30T02:08:26;96367.00;;;-3.44;100.00
56038;BME280;41907;47.848;9.000;2023-01-30T02:11:29;96374.81;;;-3.37;100.00
56038;BME280;41907;47.848;9.000;2023-01-30T02:13:56;96385.81;;;-3.28;100.00
56038;BME280;41907;47.848;9.000;2023-01-30T02:16:23;96384.22;;;-3.29;100.00
56038;BME280;41907;47.848;9.000;2023-01-30T02:18:49;96385.63;;;-3.27;100.00
56038;BME280;41907;47.848;9.000;2023-01-30T02:24:18;96394.47;;;-3.21;100.00
56038;BME280;41907;47.848;9.000;2023-01-30T02:43:07;96425.25;;;-2.92;100.00
56038;BME280;41907;47.848;9.000;2023-01-30T02:46:01;96427.06;;;-2.92;100.00
56038;BME280;41907;47.848;9.000;2023-01-30T02:48:37;96435.50;;;-2.90;100.00
56038;BME280;41907;47.848;9.000;2023-01-30T02:51:19;96420.03;;;-2.85;100.00
56038;BME280;41907;47.848;9.000;2023-01-30T02:53:46;96428.63;;;-2.78;100.00
56038;BME280;41907;47.848;9.000;2023-01-30T02:56:12;96429.03;;;-2.75;100.00
56038;BME280;41907;47.848;9.000;2023-01-30T02:58:43;96437.22;;;-2.65;100.00
56038;BME280;41907;47.848;9.000;2023-01-30T03:03:56;96442.72;;;-2.86;100.00
56038;BME280;41907;47.848;9.000;2023-01-30T03:09:21;96435.50;;;-2.90;100.00
56038;BME280;41907;47.848;9.000;2023-01-30T03:12:03;96456.56;;;-2.92;100.00
56038;BME280;41907;47.848;9.000;2023-01-30T03:17:03;96425.31;;;-3.05;100.00
56038;BME280;41907;47.848;9.000;2023-01-30T03:19:30;96407.47;;;-3.15;100.00
56038;BME280;41907;47.848;9.000;2023-01-30T03:21:56;96404.09;;;-3.22;100.00
56038;BME280;41907;47.848;9.000;2023-01-30T03:24:21;96392.63;;;-3.21;100.00
56038;BME280;41907;47.848;9.000;2023-01-30T03:27:01;96401.69;;;-3.23;100.00
56038;BME280;41907;47.848;9.000;2023-01-30T03:29:28;96422.94;;;-3.13;100.00
56038;BME280;41907;47.848;9.000;2023-01-30T03:31:53;96410.88;;;-3.21;100.00
56038;BME280;41907;47.848;9.000;2023-01-30T03:34:19;96415.91;;;-3.13;100.00
56038;BME280;41907;47.848;9.000;2023-01-30T03:36:46;96436.16;;;-3.08;100.00
56038;BME280;41907;47.848;9.000;2023-01-30T03:39:11;96427.72;;;-3.04;100.00
56038;BME280;41907;47.848;9.000;2023-01-30T03:41:37;96431.72;;;-2.94;100.00
56038;BME280;41907;47.848;9.000;2023-01-30T03:44:02;96446.53;;;-2.88;100.00
56038;BME280;41907;47.848;9.000;2023-01-30T03:46:27;96437.47;;;-2.79;100.00
56038;BME280;41907;47.848;9.000;2023-01-30T03:48:53;96425.63;;;-2.82;100.00
56038;BME280;41907;47.848;9.000;2023-01-30T03:51:18;96410.63;;;-2.93;100.00
56038;BME280;41907;47.848;9.000;2023-01-30T03:53:43;96419.66;;;-2.95;100.00
56038;BME280;41907;47.848;9.000;2023-01-30T03:56:09;96437.91;;;-2.89;100.00
56038;BME280;41907;47.848;9.000;2023-01-30T03:58:34;96441.72;;;-2.91;100.00
56038;BME280;41907;47.848;9.000;2023-01-30T04:01:00;96445.53;;;-2.87;100.00
56038;BME280;41907;47.848;9.000;2023-01-30T04:03:25;96452.72;;;-2.83;100.00
56038;BME280;41907;47.848;9.000;2023-01-30T04:05:50;96453.13;;;-2.79;100.00
56038;BME280;41907;47.848;9.000;2023-01-30T04:08:15;96442.69;;;-2.79;100.00
56038;BME280;41907;47.848;9.000;2023-01-30T04:10:41;96440.31;;;-2.87;100.00
56038;BME280;41907;47.848;9.000;2023-01-30T04:13:06;96439.53;;;-2.94;100.00
56038;BME280;41907;47.848;9.000;2023-01-30T04:15:32;96424.84;;;-2.89;100.00
56038;BME280;41907;47.848;9.000;2023-01-30T04:17:57;96420.03;;;-2.92;100.00
56038;BME280;41907;47.848;9.000;2023-01-30T04:20:22;96417.84;;;-2.95;100.00
56038;BME280;41907;47.848;9.000;2023-01-30T04:22:48;96420.84;;;-2.91;100.00
56038;BME280;41907;47.848;9.000;2023-01-30T04:25:14;96411.81;;;-2.89;100.00
56038;BME280;41907;47.848;9.000;2023-01-30T04:27:39;96388.16;;;-2.94;100.00
56038;BME280;41907;47.848;9.000;2023-01-30T04:30:05;96368.31;;;-3.08;100.00
56038;BME280;41907;47.848;9.000;2023-01-30T04:32:30;96351.88;;;-3.15;100.00
56038;BME280;41907;47.848;9.000;2023-01-30T04:34:56;96343.25;;;-3.16;100.00
56038;BME280;41907;47.848;9.000;2023-01-30T04:37:21;96340.69;;;-3.22;100.00
56038;BME280;41907;47.848;9.000;2023-01-30T04:39:46;96366.13;;;-3.18;100.00
56038;BME280;41907;47.848;9.000;2023-01-30T04:42:12;96366.34;;;-3.19;100.00
56038;BME280;41907;47.848;9.000;2023-01-30T04:44:37;96373.97;;;-3.18;100.00
56038;BME280;41907;47.848;9.000;2023-01-30T04:47:03;96372.56;;;-3.20;100.00
56038;BME280;41907;47.848;9.000;2023-01-30T04:49:28;96389.41;;;-3.16;100.00
56038;BME280;41907;47.848;9.000;2023-01-30T04:51:53;96390.03;;;-3.14;100.00
56038;BME280;41907;47.848;9.000;2023-01-30T04:54:19;96387.38;;;-3.08;100.00
56038;BME280;41907;47.848;9.000;2023-01-30T04:56:44;96393.19;;;-3.06;100.00
56038;BME280;41907;47.848;9.000;2023-01-30T04:59:09;96404.59;;;-2.93;100.00
56038;BME280;41907;47.848;9.000;2023-01-30T05:01:37;96403.38;;;-2.84;100.00
56038;BME280;41907;47.848;9.000;2023-01-30T05:04:04;96397.09;;;-2.77;100.00
56038;BME280;41907;47.848;9.000;2023-01-30T05:06:30;96391.09;;;-2.77;100.00
56038;BME280;41907;47.848;9.000;2023-01-30T05:08:57;96382.22;;;-2.70;100.00
56038;BME280;41907;47.848;9.000;2023-01-30T05:11:23;96375.72;;;-2.60;100.00
56038;BME280;41907;47.848;9.000;2023-01-30T05:13:49;96365.13;;;-2.66;100.00
56038;BME280;41907;47.848;9.000;2023-01-30T05:16:16;96360.94;;;-2.73;100.00
56038;BME280;41907;47.848;9.000;2023-01-30T05:18:43;96363.78;;;-2.75;100.00
56038;BME280;41907;47.848;9.000;2023-01-30T05:21:14;96363.53;;;-2.73;100.00
56038;BME280;41907;47.848;9.000;2023-01-30T05:23:40;96370.56;;;-2.67;100.00
56038;BME280;41907;47.848;9.000;2023-01-30T05:26:06;96382.75;;;-2.61;100.00
56038;BME280;41907;47.848;9.000;2023-01-30T05:28:32;96388.97;;;-2.55;100.00
56038;BME280;41907;47.848;9.000;2023-01-30T05:31:09;96385.69;;;-2.44;100.00
56038;BME280;41907;47.848;9.000;2023-01-30T05:33:35;96376.63;;;-2.42;100.00
56038;BME280;41907;47.848;9.000;2023-01-30T05:36:00;96384.41;;;-2.35;100.00
56038;BME280;41907;47.848;9.000;2023-01-30T05:38:26;96391.09;;;-2.39;100.00
56038;BME280;41907;47.848;9.000;2023-01-30T05:41:06;96377.44;;;-2.41;100.00
56038;BME280;41907;47.848;9.000;2023-01-30T05:43:33;96385.47;;;-2.43;100.00
56038;BME280;41907;47.848;9.000;2023-01-30T05:46:00;96383.06;;;-2.44;100.00
56038;BME280;41907;47.848;9.000;2023-01-30T05:48:26;96387.72;;;-2.46;100.00
56038;BME280;41907;47.848;9.000;2023-01-30T05:50:53;96386.13;;;-2.47;100.00
56038;BME280;41907;47.848;9.000;2023-01-30T05:53:20;96375.94;;;-2.55;100.00
56038;BME280;41907;47.848;9.000;2023-01-30T05:55:46;96362.06;;;-2.56;100.00
56038;BME280;41907;47.848;9.000;2023-01-30T05:58:11;96344.19;;;-2.59;100.00
56038;BME280;41907;47.848;9.000;2023-01-30T06:00:37;96338.78;;;-2.57;100.00
56038;BME280;41907;47.848;9.000;2023-01-30T06:03:03;96332.91;;;-2.53;100.00
56038;BME280;41907;47.848;9.000;2023-01-30T06:05:28;96345.38;;;-2.55;100.00
56038;BME280;41907;47.848;9.000;2023-01-30T06:07:53;96358.59;;;-2.50;100.00
56038;BME280;41907;47.848;9.000;2023-01-30T06:10:19;96361.22;;;-2.50;100.00
56038;BME280;41907;47.848;9.000;2023-01-30T06:12:44;96337.13;;;-2.52;100.00
56038;BME280;41907;47.848;9.000;2023-01-30T06:15:10;96325.13;;;-2.59;100.00
56038;BME280;41907;47.848;9.000;2023-01-30T06:17:36;96332.34;;;-2.62;100.00
56038;BME280;41907;47.848;9.000;2023-01-30T06:20:01;96353.03;;;-2.60;100.00
56038;BME280;41907;47.848;9.000;2023-01-30T06:22:26;96365.03;;;-2.52;100.00
56038;BME280;41907;47.848;9.000;2023-01-30T06:24:52;96369.66;;;-2.54;100.00
56038;BME280;41907;47.848;9.000;2023-01-30T06:27:17;96368.66;;;-2.47;100.00
56038;BME280;41907;47.848;9.000;2023-01-30T06:29:43;96377.03;;;-2.38;100.00
56038;BME280;41907;47.848;9.000;2023-01-30T06:32:08;96385.88;;;-2.39;100.00
56038;BME280;41907;47.848;9.000;2023-01-30T06:34:34;96376.84;;;-2.43;100.00
56038;BME280;41907;47.848;9.000;2023-01-30T06:37:00;96373.22;;;-2.42;100.00
56038;BME280;41907;47.848;9.000;2023-01-30T06:39:25;96384.53;;;-2.48;100.00
56038;BME280;41907;47.848;9.000;2023-01-30T06:41:50;96394.78;;;-2.53;100.00
56038;BME280;41907;47.848;9.000;2023-01-30T06:44:17;96401.44;;;-2.57;100.00
56038;BME280;41907;47.848;9.000;2023-01-30T06:46:42;96407.47;;;-2.64;100.00
56038;BME280;41907;47.848;9.000;2023-01-30T06:49:07;96400.69;;;-2.65;100.00
56038;BME280;41907;47.848;9.000;2023-01-30T06:51:32;96410.13;;;-2.70;100.00
56038;BME280;41907;47.848;9.000;2023-01-30T06:53:58;96404.09;;;-2.71;100.00
56038;BME280;41907;47.848;9.000;2023-01-30T06:56:23;96419.16;;;-2.66;100.00
56038;BME280;41907;47.848;9.000;2023-01-30T06:58:48;96415.34;;;-2.70;100.00
56038;BME280;41907;47.848;9.000;2023-01-30T07:01:14;96424.19;;;-2.71;100.00
56038;BME280;41907;47.848;9.000;2023-01-30T07:03:39;96428.59;;;-2.72;100.00
56038;BME280;41907;47.848;9.000;2023-01-30T07:06:04;96427.44;;;-2.76;100.00
56038;BME280;41907;47.848;9.000;2023-01-30T07:08:30;96426.81;;;-2.78;100.00
56038;BME280;41907;47.848;9.000;2023-01-30T07:10:55;96418.34;;;-2.67;100.00
56038;BME280;41907;47.848;9.000;2023-01-30T07:13:20;96420.75;;;-2.65;100.00
56038;BME280;41907;47.848;9.000;2023-01-30T07:15:46;96420.94;;;-2.60;100.00
56038;BME280;41907;47.848;9.000;2023-01-30T07:18:12;96437.97;;;-2.51;100.00
56038;BME280;41907;47.848;9.000;2023-01-30T07:20:37;96432.53;;;-2.49;100.00
56038;BME280;41907;47.848;9.000;2023-01-30T07:23:03;96428.47;;;-2.39;100.00
56038;BME280;41907;47.848;9.000;2023-01-30T07:25:29;96419.13;;;-2.21;100.00
56038;BME280;41907;47.848;9.000;2023-01-30T07:27:59;96424.78;;;-1.93;100.00
56038;BME280;41907;47.848;9.000;2023-01-30T07:30:27;96415.28;;;-0.17;100.00
56038;BME280;41907;47.848;9.000;2023-01-30T07:32:55;96405.84;;;0.47;95.09
56038;BME280;41907;47.848;9.000;2023-01-30T07:35:22;96411.78;;;0.66;92.57
56038;BME280;41907;47.848;9.000;2023-01-30T07:37:49;96397.56;;;0.20;91.98
56038;BME280;41907;47.848;9.000;2023-01-30T07:40:15;96392.72;;;-0.06;94.03
56038;BME280;41907;47.848;9.000;2023-01-30T07:42:41;96385.50;;;0.89;91.85
56038;BME280;41907;47.848;9.000;2023-01-30T07:45:07;96369.50;;;2.49;83.97
56038;BME280;41907;47.848;9.000;2023-01-30T07:47:33;96355.13;;;3.61;76.23
56038;BME280;41907;47.848;9.000;2023-01-30T07:49:58;96355.56;;;4.38;70.80
56038;BME280;41907;47.848;9.000;2023-01-30T07:52:24;96366.22;;;5.48;66.57
56038;BME280;41907;47.848;9.000;2023-01-30T07:54:49;96369.34;;;6.12;63.28
56038;BME280;41907;47.848;9.000;2023-01-30T07:57:14;96368.84;;;7.51;58.01
56038;BME280;41907;47.848;9.000;2023-01-30T07:59:40;96389.22;;;7.65;54.10
56038;BME280;41907;47.848;9.000;2023-01-30T08:02:07;96394.53;;;8.19;53.60
56038;BME280;41907;47.848;9.000;2023-01-30T08:04:33;96412.53;;;8.33;52.00
56038;BME280;41907;47.848;9.000;2023-01-30T08:06:58;96418.38;;;8.98;49.94
56038;BME280;41907;47.848;9.000;2023-01-30T08:09:24;96414.94;;;8.97;48.84
56038;BME280;41907;47.848;9.000;2023-01-30T08:11:49;96409.09;;;6.78;53.04
56038;BME280;41907;47.848;9.000;2023-01-30T08:14:14;96414.97;;;4.68;60.38
56038;BME280;41907;47.848;9.000;2023-01-30T08:16:40;96415.75;;;4.04;64.76
56038;BME280;41907;47.848;9.000;2023-01-30T08:19:05;96406.84;;;4.42;63.22
56038;BME280;41907;47.848;9.000;2023-01-30T08:21:31;96419.44;;;2.78;68.15
56038;BME280;41907;47.848;9.000;2023-01-30T08:23:56;96409.81;;;3.92;68.53
56038;BME280;41907;47.848;9.000;2023-01-30T08:26:21;96403.34;;;4.37;63.95
56038;BME280;41907;47.848;9.000;2023-01-30T08:28:47;96416.47;;;2.91;69.01
56038;BME280;41907;47.848;9.000;2023-01-30T08:31:14;96418.25;;;5.89;61.45
56038;BME280;41907;47.848;9.000;2023-01-30T08:33:40;96425.25;;;6.51;57.46
56038;BME280;41907;47.848;9.000;2023-01-30T08:36:06;96427.13;;;7.76;53.37
56038;BME280;41907;47.848;9.000;2023-01-30T08:38:31;96414.06;;;7.90;51.56
56038;BME280;41907;47.848;9.000;2023-01-30T08:40:57;96408.22;;;9.05;48.50
56038;BME280;41907;47.848;9.000;2023-01-30T08:43:23;96383.06;;;9.87;45.05
56038;BME280;41907;47.848;9.000;2023-01-30T08:45:52;96391.88;;;8.14;48.04
56038;BME280;41907;47.848;9.000;2023-01-30T08:48:18;96398.09;;;8.00;49.33
56038;BME280;41907;47.848;9.000;2023-01-30T08:50:43;96398.97;;;8.29;47.87
56038;BME280;41907;47.848;9.000;2023-01-30T08:53:08;96417.22;;;9.09;46.98
56038;BME280;41907;47.848;9.000;2023-01-30T08:55:34;96427.16;;;9.75;45.92
56038;BME280;41907;47.848;9.000;2023-01-30T08:58:00;96437.59;;;11.35;41.79
56038;BME280;41907;47.848;9.000;2023-01-30T09:00:26;96452.84;;;12.44;39.48
56038;BME280;41907;47.848;9.000;2023-01-30T09:02:53;96438.38;;;12.45;38.12
56038;BME280;41907;47.848;9.000;2023-01-30T09:05:19;96429.88;;;10.55;40.74
56038;BME280;41907;47.848;9.000;2023-01-30T09:07:44;96445.47;;;9.57;43.32
56038;BME280;41907;47.848;9.000;2023-01-30T09:10:09;96431.97;;;8.62;44.81
56038;BME280;41907;47.848;9.000;2023-01-30T09:12:35;96432.56;;;9.17;44.34
56038;BME280;41907;47.848;9.000;2023-01-30T09:15:00;96433.81;;;10.38;42.09
56038;BME280;41907;47.848;9.000;2023-01-30T09:17:26;96433.69;;;9.87;42.81
56038;BME280;41907;47.848;9.000;2023-01-30T09:19:51;96440.69;;;10.26;42.20
56038;BME280;41907;47.848;9.000;2023-01-30T09:22:16;96449.56;;;9.74;42.80
56038;BME280;41907;47.848;9.000;2023-01-30T09:24:42;96472.31;;;10.32;42.80
56038;BME280;41907;47.848;9.000;2023-01-30T09:27:07;96464.63;;;11.47;40.64
56038;BME280;41907;47.848;9.000;2023-01-30T09:29:33;96461.66;;;11.02;40.34
56038;BME280;41907;47.848;9.000;2023-01-30T09:31:58;96463.38;;;11.58;40.81
56038;BME280;41907;47.848;9.000;2023-01-30T09:34:24;96444.03;;;11.61;38.95
56038;BME280;41907;47.848;9.000;2023-01-30T09:36:56;96441.75;;;10.95;40.94
56038;BME280;41907;47.848;9.000;2023-01-30T09:39:24;96443.91;;;10.41;41.61
56038;BME280;41907;47.848;9.000;2023-01-30T09:42:20;96441.44;;;9.84;43.45
56038;BME280;41907;47.848;9.000;2023-01-30T09:53:05;96436.84;;;11.02;41.75
56038;BME280;41907;47.848;9.000;2023-01-30T09:55:38;96431.69;;;11.51;41.09
56038;BME280;41907;47.848;9.000;2023-01-30T09:58:18;96435.50;;;11.78;40.74
56038;BME280;41907;47.848;9.000;2023-01-30T10:00:44;96437.94;;;12.51;38.88
56038;BME280;41907;47.848;9.000;2023-01-30T10:03:14;96418.78;;;12.58;38.66
56038;BME280;41907;47.848;9.000;2023-01-30T10:05:49;96418.38;;;13.79;36.99
56038;BME280;41907;47.848;9.000;2023-01-30T10:16:51;96429.09;;;10.12;43.90
56038;BME280;41907;47.848;9.000;2023-01-30T10:19:38;96424.53;;;11.33;41.16
56038;BME280;41907;47.848;9.000;2023-01-30T10:25:13;96414.94;;;10.86;41.71
56038;BME280;41907;47.848;9.000;2023-01-30T10:27:45;96412.50;;;10.90;41.79
56038;BME280;41907;47.848;9.000;2023-01-30T10:30:14;96416.84;;;9.44;45.84
56038;BME280;41907;47.848;9.000;2023-01-30T10:33:14;96418.00;;;10.28;43.76
56038;BME280;41907;47.848;9.000;2023-01-30T10:35:43;96397.56;;;10.56;42.87
56038;BME280;41907;47.848;9.000;2023-01-30T10:38:18;96398.50;;;10.65;42.74
56038;BME280;41907;47.848;9.000;2023-01-30T10:41:03;96396.34;;;9.68;45.31
56038;BME280;41907;47.848;9.000;2023-01-30T10:43:52;96356.28;;;11.82;41.58
56038;BME280;41907;47.848;9.000;2023-01-30T10:46:23;96348.97;;;11.33;41.40
56038;BME280;41907;47.848;9.000;2023-01-30T10:48:57;96343.03;;;11.08;41.66
56038;BME280;41907;47.848;9.000;2023-01-30T10:51:56;96341.03;;;11.82;41.53
56038;BME280;41907;47.848;9.000;2023-01-30T10:54:39;96342.63;;;11.42;40.79
56038;BME280;41907;47.848;9.000;2023-01-30T10:57:24;96346.31;;;10.40;43.27
56038;BME280;41907;47.848;9.000;2023-01-30T11:00:36;96360.25;;;6.99;50.53
56038;BME280;41907;47.848;9.000;2023-01-30T11:05:48;96354.75;;;4.06;61.65
56038;BME280;41907;47.848;9.000;2023-01-30T11:10:41;96342.44;;;3.58;66.12
56038;BME280;41907;47.848;9.000;2023-01-30T11:13:33;96340.69;;;3.95;64.95
56038;BME280;41907;47.848;9.000;2023-01-30T11:16:03;96346.19;;;3.40;67.67
56038;BME280;41907;47.848;9.000;2023-01-30T11:18:29;96340.41;;;3.92;66.29
56038;BME280;41907;47.848;9.000;2023-01-30T11:21:07;96352.09;;;3.74;66.29
56038;BME280;41907;47.848;9.000;2023-01-30T11:23:38;96346.13;;;3.57;67.85
56038;BME280;41907;47.848;9.000;2023-01-30T11:26:04;96346.38;;;3.55;68.44
56038;BME280;41907;47.848;9.000;2023-01-30T11:28:38;96343.94;;;4.02;67.79
56038;BME280;41907;47.848;9.000;2023-01-30T11:31:04;96332.13;;;4.47;65.83
56038;BME280;41907;47.848;9.000;2023-01-30T11:33:35;96322.13;;;4.17;66.99
56038;BME280;41907;47.848;9.000;2023-01-30T11:36:06;96308.97;;;4.22;66.25
56038;BME280;41907;47.848;9.000;2023-01-30T11:39:32;96304.63;;;3.74;69.22
56038;BME280;41907;47.848;9.000;2023-01-30T11:41:32;96291.47;;;2.82;71.71
56038;BME280;41907;47.848;9.000;2023-01-30T11:44:02;96287.41;;;2.74;73.04
56038;BME280;41907;47.848;9.000;2023-01-30T11:46:30;96285.00;;;3.11;71.96
56038;BME280;41907;47.848;9.000;2023-01-30T11:49:00;96306.44;;;3.20;71.18
56038;BME280;41907;47.848;9.000;2023-01-30T11:51:28;96315.44;;;3.51;70.20
56038;BME280;41907;47.848;9.000;2023-01-30T11:53:57;96324.97;;;3.52;69.80
56038;BME280;41907;47.848;9.000;2023-01-30T11:56:40;96321.28;;;3.53;71.17
56038;BME280;41907;47.848;9.000;2023-01-30T11:59:32;96330.44;;;3.45;70.46
56038;BME280;41907;47.848;9.000;2023-01-30T12:04:32;96308.91;;;3.31;70.53
56038;BME280;41907;47.848;9.000;2023-01-30T12:07:07;96308.84;;;2.61;71.98
56038;BME280;41907;47.848;9.000;2023-01-30T12:09:38;96303.63;;;2.11;76.10
56038;BME280;41907;47.848;9.000;2023-01-30T12:12:31;96301.72;;;1.90;78.22
56038;BME280;41907;47.848;9.000;2023-01-30T12:20:04;96304.44;;;1.78;81.22
56038;BME280;41907;47.848;9.000;2023-01-30T12:25:50;96295.50;;;1.79;81.50
56038;BME280;41907;47.848;9.000;2023-01-30T12:28:26;96286.72;;;1.73;82.36
56038;BME280;41907;47.848;9.000;2023-01-30T12:31:00;96294.47;;;1.80;82.70
56038;BME280;41907;47.848;9.000;2023-01-30T12:33:31;96297.75;;;2.04;81.13
56038;BME280;41907;47.848;9.000;2023-01-30T12:38:49;96293.03;;;1.89;81.55
56038;BME280;41907;47.848;9.000;2023-01-30T12:46:43;96298.59;;;2.09;81.88
56038;BME280;41907;47.848;9.000;2023-01-30T12:52:06;96277.78;;;2.08;81.92
56038;BME280;41907;47.848;9.000;2023-01-30T13:02:43;96263.78;;;2.79;79.54
56038;BME280;41907;47.848;9.000;2023-01-30T13:05:28;96259.75;;;2.72;79.85
56038;BME280;41907;47.848;9.000;2023-01-30T13:08:08;96259.25;;;2.75;79.82
56038;BME280;41907;47.848;9.000;2023-01-30T13:10:50;96249.00;;;2.56;80.42
56038;BME280;41907;47.848;9.000;2023-01-30T13:18:40;96247.34;;;2.50;81.65
56038;BME280;41907;47.848;9.000;2023-01-30T13:21:15;96231.19;;;2.42;81.80
56038;BME280;41907;47.848;9.000;2023-01-30T13:24:12;96232.22;;;2.41;83.04
56038;BME280;41907;47.848;9.000;2023-01-30T13:26:41;96247.03;;;2.25;83.28
56038;BME280;41907;47.848;9.000;2023-01-30T13:32:02;96250.13;;;2.22;84.90
56038;BME280;41907;47.848;9.000;2023-01-30T13:34:40;96238.25;;;2.19;84.45
56038;BME280;41907;47.848;9.000;2023-01-30T13:37:17;96230.31;;;2.36;83.96
56038;BME280;41907;47.848;9.000;2023-01-30T13:39:56;96237.72;;;2.39;83.98
56038;BME280;41907;47.848;9.000;2023-01-30T13:44:55;96244.91;;;2.27;84.46
56038;BME280;41907;47.848;9.000;2023-01-30T13:47:40;96222.53;;;2.24;84.46
56038;BME280;41907;47.848;9.000;2023-01-30T14:00:55;96242.75;;;2.02;86.48
56038;BME280;41907;47.848;9.000;2023-01-30T14:03:33;96246.88;;;1.98;87.73
56038;BME280;41907;47.848;9.000;2023-01-30T14:14:00;96219.69;;;2.09;88.31
56038;BME280;41907;47.848;9.000;2023-01-30T14:16:47;96227.28;;;2.06;88.40
56038;BME280;41907;47.848;9.000;2023-01-30T14:21:59;96228.13;;;2.11;88.98
56038;BME280;41907;47.848;9.000;2023-01-30T14:24:26;96242.41;;;2.15;89.55
56038;BME280;41907;47.848;9.000;2023-01-30T14:26:59;96250.78;;;2.12;89.73
56038;BME280;41907;47.848;9.000;2023-01-30T14:35:18;96271.88;;;2.17;91.36
56038;BME280;41907;47.848;9.000;2023-01-30T14:45:50;96270.38;;;2.21;94.21
56038;BME280;41907;47.848;9.000;2023-01-30T15:07:25;96292.19;;;2.17;97.24
56038;BME280;41907;47.848;9.000;2023-01-30T15:10:05;96296.72;;;2.05;98.55
56038;BME280;41907;47.848;9.000;2023-01-30T15:15:22;96310.09;;;2.03;100.00
56038;BME280;41907;47.848;9.000;2023-01-30T15:27:00;96340.22;;;1.96;100.00
56038;BME280;41907;47.848;9.000;2023-01-30T15:32:41;96336.53;;;1.80;100.00
56038;BME280;41907;47.848;9.000;2023-01-30T15:42:39;96351.78;;;1.78;100.00
56038;BME280;41907;47.848;9.000;2023-01-30T15:45:28;96354.00;;;1.69;100.00
56038;BME280;41907;47.848;9.000;2023-01-30T15:50:55;96364.06;;;1.61;100.00
56038;BME280;41907;47.848;9.000;2023-01-30T15:53:26;96371.28;;;1.54;100.00
56038;BME280;41907;47.848;9.000;2023-01-30T15:55:53;96377.72;;;1.46;100.00
56038;BME280;41907;47.848;9.000;2023-01-30T15:58:20;96371.06;;;1.55;100.00
56038;BME280;41907;47.848;9.000;2023-01-30T16:00:48;96365.72;;;1.50;100.00